KMOB/MOB METAR and TAF weather

Enter ICAO airport designator
Station Type Date Time Source
KMOB METAR 2021/10/22 18:56 UTC NOAA

KMOB 221856Z 34009G15KT 10SM SCT037 BKN049 29/17 A3004 RMK AO2 SLP167 T02940167


Station Type Date Time Source
KMOB Decoded METAR 2021/10/22 18:56 UTC NOAA

MOBILE REGIONAL AIRPORT, AL, United States (KMOB) 30-41N 88-14W 67M
Oct 22, 2021 - 02:56 PM EDT / 2021.10.22 1856 UTC
Wind: from the NNW (340 degrees) at 10 MPH (9 KT) gusting to 17 MPH (15 KT):0
Visibility: 10 mile(s):0
Sky conditions: mostly cloudy
Temperature: 84.9 F (29.4 C)
Dew Point: 62.1 F (16.7 C)
Relative Humidity: 46%
Pressure (altimeter): 30.04 in. Hg (1017 hPa)
ob: KMOB 221856Z 34009G15KT 10SM SCT037 BKN049 29/17 A3004 RMK AO2 SLP167 T02940167
cycle: 19

Station Type Date Time Source
KMOB TAF 2021/10/22 18:22 UTC NOAA

TAF KMOB 221720Z 2218/2318 02005KT P6SM FEW020 FEW250
FM230000 VRB03KT P6SM SKC
FM231300 07005KT P6SM FEW030

Example: see airport list